OKPCC LKPR-LKTB
Flight info
| Callsign | OKPCC |
|---|---|
| Flight time | N/A |
| Altitude | 19000 |
| Route | VOZ5N/30 VOZ DCT BODAL DCT TUMKA |
| Aircraft | PC12/L-SDFGRWY/S |
Departure
| Time | N/A |
|---|---|
| Airport | Václav Havel Airport Prague (LKPR) |
Arrival
| Time | 2026-04-30 18:05 |
|---|---|
| Airport | Brno-Tuřany Airport (LKTB) |
| Time | Latitude | Longitude | Altitude | Speed | Heading |
|---|---|---|---|---|---|
| 2026-04-30 17:39 | 49.51252 | 15.14869 | 19415 ft | 236 kts | 88° |
| 2026-04-30 17:41 | 49.49750 | 15.35049 | 19409 ft | 240 kts | 88° |
| 2026-04-30 17:42 | 49.49364 | 15.40151 | 19407 ft | 240 kts | 88° |
| 2026-04-30 17:42 | 49.48781 | 15.47810 | 19404 ft | 241 kts | 88° |
| 2026-04-30 17:43 | 49.48389 | 15.52925 | 19404 ft | 241 kts | 88° |
| 2026-04-30 17:44 | 49.47802 | 15.60467 | 18420 ft | 232 kts | 88° |
| 2026-04-30 17:44 | 49.47234 | 15.67802 | 17135 ft | 229 kts | 89° |
| 2026-04-30 17:46 | 49.45935 | 15.79732 | 15100 ft | 233 kts | 110° |
| 2026-04-30 17:47 | 49.42321 | 15.87798 | 12926 ft | 221 kts | 118° |
| 2026-04-30 17:48 | 49.38854 | 15.95239 | 10616 ft | 211 kts | 120° |
| 2026-04-30 17:48 | 49.36318 | 16.00653 | 8805 ft | 206 kts | 121° |
| 2026-04-30 17:49 | 49.32908 | 16.07918 | 6943 ft | 220 kts | 122° |
| 2026-04-30 17:50 | 49.29268 | 16.15637 | 5203 ft | 224 kts | 122° |
| 2026-04-30 17:51 | 49.26563 | 16.21362 | 4041 ft | 219 kts | 122° |
| 2026-04-30 17:52 | 49.24036 | 16.26698 | 3198 ft | 208 kts | 122° |
| 2026-04-30 17:53 | 49.19922 | 16.35381 | 2998 ft | 208 kts | 122° |
| 2026-04-30 17:54 | 49.17419 | 16.42900 | 2989 ft | 190 kts | 91° |
| 2026-04-30 17:55 | 49.16750 | 16.50502 | 2980 ft | 150 kts | 90° |
| 2026-04-30 17:56 | 49.19999 | 16.50884 | 3000 ft | 206 kts | 291° |
| 2026-04-30 17:57 | 49.17885 | 16.45437 | 2994 ft | 216 kts | 216° |
| 2026-04-30 17:58 | 49.17467 | 16.39423 | 2993 ft | 206 kts | 300° |
| 2026-04-30 17:59 | 49.21822 | 16.39001 | 2983 ft | 196 kts | 60° |
| 2026-04-30 18:00 | 49.19162 | 16.45734 | 2994 ft | 212 kts | 141° |
| 2026-04-30 18:00 | 49.16719 | 16.50505 | 2981 ft | 165 kts | 92° |
| 2026-04-30 18:01 | 49.16480 | 16.53628 | 2642 ft | 128 kts | 93° |
| 2026-04-30 18:02 | 49.16195 | 16.56967 | 2163 ft | 94 kts | 91° |
| 2026-04-30 18:02 | 49.15909 | 16.59970 | 2005 ft | 87 kts | 92° |
| 2026-04-30 18:03 | 49.15705 | 16.62758 | 1455 ft | 89 kts | 92° |
| 2026-04-30 18:04 | 49.15457 | 16.65545 | 1120 ft | 85 kts | 95° |
| 2026-04-30 18:05 | 49.15168 | 16.68942 | 778 ft | 43 kts | 95° |
| 2026-04-30 18:06 | 49.15335 | 16.69250 | 783 ft | 0 kts | 9° |
| 2026-04-30 18:07 | 49.15370 | 16.69211 | 783 ft | 0 kts | 194° |